Airport ICAO


07:26 UTC

12°C

Broken clouds


An affordable passengers' Moving Map for your aircraft. Made for the iPad and the iPhone
More information here

EGKK Gatwick


London UNITED KINGDOM   VFR


METAR EGKK 200720Z 00000KT 9999 FEW025 SCT033 BKN038 12/12 Q1020 0h06min

TAF EGKK 200445Z 2006/2112 VRB03KT 9999 FEW040 TEMPO 2006/2009 8000 PROB30 TEMPO 2006/2008 4000 BR BECMG 2009/2012 22010KT 2h41min





NOTAMS

OPEN